Карточка аэропорта USRR

Внимание!
Информация на этой странице в стадии наполнения.
Если вы не увидели какой-то информации, или заметили неточность - пожалуйста сообщите нам!
Спасибо!
Команда RU-STAFF
Название аэропортаСургут
Название аэропорта (англ.)Surgut
Превышение196 ft. (59.7 m.)
Координаты61°20.502', 73°24.168'
Высота перехода700m
Эшелон переходаQFE>=742mm:FL040; QFE<=742mm:FL050
Коды ответчика5570-5577
Зона ОрВДТюмень РПИ (USTV)
Данные METARUSRR 162300Z 14005MPS 110V170 9999 SCT049 02/M04 Q1006 R07/CLRD60 NOSIG RMK QFE749
Проноз погоды (TAF)USRR 161940Z 1621/1721 14008G18MPS 1200 SHSN BKN005 OVC010CB TEMPO 1621/1709 16010G20MPS 0500 +SHSN +FZRA BKN002 OVC010CB FM171200 23003G12MPS 6000 FEW005 BKN016CB
NOTAMshow/hide NOTAM
AWOS   TABLE

Информация о ВПП

ВПП Длина ВПП (м.) Покрытие Курс ВПП Частота ILS
072780Асфальтобетон73110.5
252780Асфальтобетон253109.1

Диспетчерские позиции

Позывной Наименование органа УВД Частота
USRR_APPСургут-Подход129.300
USRR_TWRСургут-Вышка120.800
USRR_R_APPСургут - Круг120.300



Спутниковое изображение